Time;durP1;ratioP1;P1;durP2;ratioP2;P2;SDS_P1;SDS_P2;PMS_P1;PMS_P2;Temp;Humidity;BMP_temperature;BMP_pressure;BME280_temperature;BME280_humidity;BME280_pressure;Samples;Min_cycle;Max_cycle;Signal;HPM_P1;HPM_P2
2023/01/02 00:00:05;;;;;;;17.60;12.07;;;;;;;9.05;100.00;100127.66;5009353;28;20221;-63
2023/01/02 00:02:30;;;;;;;20.93;13.20;;;;;;;8.95;100.00;100129.00;4992792;28;20285;-61
2023/01/02 00:04:56;;;;;;;17.03;11.90;;;;;;;9.03;100.00;100124.34;5052712;28;20197;-62
2023/01/02 00:07:21;;;;;;;17.00;12.30;;;;;;;9.01;100.00;100126.97;5034693;28;20572;-62
2023/01/02 00:09:46;;;;;;;15.40;11.73;;;;;;;8.97;100.00;100125.47;5035509;28;20190;-63
2023/01/02 00:12:11;;;;;;;16.90;11.40;;;;;;;8.97;100.00;100122.91;5023858;28;20669;-62
2023/01/02 00:14:37;;;;;;;17.07;12.83;;;;;;;8.97;100.00;100119.50;5035067;28;20185;-62
2023/01/02 00:17:02;;;;;;;18.57;11.87;;;;;;;8.95;100.00;100122.13;5022981;28;20312;-62
2023/01/02 00:19:27;;;;;;;15.80;11.87;;;;;;;9.01;100.00;100123.59;5034022;28;20952;-62
2023/01/02 00:21:52;;;;;;;18.47;13.07;;;;;;;8.90;100.00;100120.69;5022260;28;20233;-62
2023/01/02 00:24:18;;;;;;;17.67;12.53;;;;;;;9.00;100.00;100101.38;5033777;28;20235;-62
2023/01/02 00:26:43;;;;;;;19.47;12.40;;;;;;;9.08;100.00;100108.72;5033283;28;20544;-62
2023/01/02 00:29:08;;;;;;;15.40;11.83;;;;;;;9.09;100.00;100100.13;5032576;28;20181;-63
2023/01/02 00:31:34;;;;;;;14.87;11.27;;;;;;;9.10;100.00;100096.66;5022023;28;20685;-62
2023/01/02 00:33:59;;;;;;;17.87;11.53;;;;;;;9.03;100.00;100102.06;5032251;28;20659;-62
2023/01/02 00:36:26;;;;;;;20.13;11.20;;;;;;;9.18;100.00;100094.56;5033191;28;20593;-63
2023/01/02 00:38:54;;;;;;;21.77;12.30;;;;;;;9.27;100.00;100091.50;5011484;28;20637;-62
2023/01/02 00:41:20;;;;;;;16.53;11.63;;;;;;;9.30;100.00;100086.25;5012901;28;20249;-63
2023/01/02 00:43:45;;;;;;;19.63;11.93;;;;;;;9.34;100.00;100081.75;5015512;28;20651;-62
2023/01/02 00:46:11;;;;;;;19.30;11.87;;;;;;;9.40;100.00;100078.06;5050717;28;20182;-62
2023/01/02 00:48:36;;;;;;;17.83;11.63;;;;;;;9.31;100.00;100077.63;5052687;28;20178;-62
2023/01/02 00:51:01;;;;;;;17.20;11.60;;;;;;;9.37;100.00;100077.31;5023758;28;20225;-62
2023/01/02 00:53:26;;;;;;;18.97;11.77;;;;;;;9.47;100.00;100080.25;5054293;28;20174;-62
2023/01/02 00:55:52;;;;;;;22.43;11.80;;;;;;;9.46;100.00;100086.28;5041179;28;20185;-62
2023/01/02 00:58:17;;;;;;;16.93;11.33;;;;;;;9.54;100.00;100075.66;5036985;28;20539;-62
2023/01/02 01:00:42;;;;;;;14.97;11.00;;;;;;;9.51;100.00;100074.06;5028235;28;20225;-62
2023/01/02 01:03:08;;;;;;;14.37;11.53;;;;;;;9.43;100.00;100081.31;5042841;28;20281;-62
2023/01/02 01:05:33;;;;;;;17.80;11.53;;;;;;;9.42;100.00;100060.88;5042071;28;20215;-61
2023/01/02 01:07:58;;;;;;;18.10;11.57;;;;;;;9.44;100.00;100062.44;5029302;28;20193;-62
2023/01/02 01:10:25;;;;;;;20.73;11.17;;;;;;;9.56;100.00;100065.28;5035244;28;20244;-63
2023/01/02 01:12:51;;;;;;;19.23;11.10;;;;;;;9.55;100.00;100066.19;5028687;28;20186;-62
2023/01/02 01:15:17;;;;;;;17.00;10.53;;;;;;;9.58;100.00;100073.75;5015246;28;20178;-62
2023/01/02 01:17:42;;;;;;;19.33;11.13;;;;;;;9.65;100.00;100070.78;5015011;28;20174;-62
2023/01/02 01:20:08;;;;;;;18.43;11.07;;;;;;;9.65;100.00;100070.78;5023602;28;20178;-62
2023/01/02 01:22:34;;;;;;;15.33;10.23;;;;;;;9.62;100.00;100067.56;5048044;28;20217;-63
2023/01/02 01:24:59;;;;;;;19.47;11.17;;;;;;;9.61;100.00;100078.72;5014990;28;20222;-62
2023/01/02 01:27:24;;;;;;;13.83;10.70;;;;;;;9.47;100.00;100071.72;5032704;28;20178;-62
2023/01/02 01:29:49;;;;;;;17.83;11.43;;;;;;;9.41;100.00;100079.75;5032925;28;20182;-62
2023/01/02 01:32:15;;;;;;;17.77;12.00;;;;;;;9.36;100.00;100087.66;5038844;28;20593;-62
2023/01/02 01:34:41;;;;;;;17.87;11.07;;;;;;;9.17;100.00;100080.06;5033433;28;20189;-62
2023/01/02 01:37:06;;;;;;;17.37;10.97;;;;;;;9.31;100.00;100079.38;5033295;28;20197;-61
2023/01/02 01:39:31;;;;;;;20.00;11.10;;;;;;;9.30;100.00;100063.16;5033422;28;20189;-62
2023/01/02 01:42:00;;;;;;;16.13;10.67;;;;;;;9.23;100.00;100061.78;5037747;28;20217;-62
2023/01/02 01:44:44;;;;;;;12.87;9.97;;;;;;;9.18;100.00;100068.88;5015085;28;20289;-62
2023/01/02 01:47:45;;;;;;;17.27;11.50;;;;;;;9.11;100.00;100063.22;5014768;28;20192;-62
2023/01/02 01:50:18;;;;;;;18.23;10.40;;;;;;;9.19;100.00;100070.53;5008031;28;20287;-62
2023/01/02 01:52:48;;;;;;;13.37;9.33;;;;;;;9.23;100.00;100069.47;5029808;28;20320;-62
2023/01/02 01:55:25;;;;;;;14.47;9.23;;;;;;;9.09;100.00;100067.59;5031180;28;20250;-62
2023/01/02 01:57:56;;;;;;;21.30;10.20;;;;;;;9.07;100.00;100071.13;5013658;28;20233;-65
2023/01/02 02:00:22;;;;;;;16.83;10.03;;;;;;;9.01;100.00;100073.09;5006734;28;20241;-62
2023/01/02 02:02:50;;;;;;;20.13;9.77;;;;;;;9.02;100.00;100079.88;5028369;28;20202;-62
2023/01/02 02:05:21;;;;;;;15.87;10.03;;;;;;;8.84;100.00;100073.91;5032167;28;20661;-62
2023/01/02 02:08:13;;;;;;;17.73;9.20;;;;;;;8.74;100.00;100064.16;5014437;28;20186;-62
2023/01/02 02:10:40;;;;;;;14.27;9.70;;;;;;;8.74;100.00;100067.53;5026086;28;20229;-63
2023/01/02 02:13:05;;;;;;;14.73;9.70;;;;;;;8.48;100.00;100068.78;5025370;28;20174;-61
2023/01/02 02:15:42;;;;;;;12.60;9.13;;;;;;;8.58;100.00;100070.00;5014322;28;20185;-62
2023/01/02 02:18:19;;;;;;;14.17;9.47;;;;;;;8.57;100.00;100060.66;5013823;28;20265;-62
2023/01/02 02:21:09;;;;;;;12.93;9.13;;;;;;;8.56;100.00;100057.25;5009708;28;20229;-62
2023/01/02 02:24:01;;;;;;;15.53;9.07;;;;;;;8.51;100.00;100063.50;5019993;28;20222;-62
2023/01/02 02:26:46;;;;;;;12.23;8.97;;;;;;;8.50;100.00;100059.28;5037010;28;20544;-62
2023/01/02 02:29:28;;;;;;;15.43;9.30;;;;;;;8.68;100.00;100058.44;5030857;28;20181;-62
2023/01/02 02:32:21;;;;;;;17.93;9.57;;;;;;;8.64;100.00;100050.94;5018539;28;20278;-62
2023/01/02 02:35:04;;;;;;;14.20;9.90;;;;;;;8.65;100.00;100050.03;5031479;28;20269;-62
2023/01/02 02:37:43;;;;;;;14.43;10.10;;;;;;;8.45;100.00;100044.09;5013185;28;20261;-62
2023/01/02 02:40:31;;;;;;;18.73;9.10;;;;;;;8.48;100.00;100049.06;5004466;28;20514;-61
2023/01/02 02:43:27;;;;;;;14.83;10.13;;;;;;;8.63;100.00;100036.44;5026011;28;20186;-62
2023/01/02 02:46:18;;;;;;;15.27;9.67;;;;;;;8.64;100.00;100028.69;5013178;28;20521;-62
2023/01/02 02:49:03;;;;;;;18.07;10.20;;;;;;;8.63;100.00;100032.16;5013854;28;20185;-62
2023/01/02 02:51:37;;;;;;;19.37;9.90;;;;;;;8.77;100.00;100038.34;5011599;28;20237;-62
2023/01/02 02:54:29;;;;;;;13.67;9.37;;;;;;;8.71;100.00;100042.88;5021778;28;20185;-62
2023/01/02 02:56:55;;;;;;;13.63;9.73;;;;;;;8.83;100.00;100043.19;5014017;28;20189;-62
2023/01/02 02:59:22;;;;;;;15.43;9.37;;;;;;;8.81;100.00;100037.31;5047280;28;20186;-62
2023/01/02 03:01:47;;;;;;;12.00;9.83;;;;;;;8.93;100.00;100041.00;5035745;28;20217;-62
2023/01/02 03:04:20;;;;;;;10.57;8.50;;;;;;;8.89;100.00;100037.75;5033900;28;20718;-62
2023/01/02 03:07:06;;;;;;;17.83;9.63;;;;;;;8.91;100.00;100032.56;5047474;28;20185;-62
2023/01/02 03:09:37;;;;;;;16.23;10.33;;;;;;;8.87;100.00;100030.16;5015130;28;20188;-63
2023/01/02 03:12:17;;;;;;;13.43;9.67;;;;;;;8.91;100.00;100033.41;5037509;28;20236;-62
2023/01/02 03:15:03;;;;;;;13.53;9.30;;;;;;;8.83;100.00;100026.06;5015787;28;20182;-62
2023/01/02 03:17:57;;;;;;;12.20;9.67;;;;;;;8.76;100.00;100022.16;5030751;28;20541;-62
2023/01/02 03:20:29;;;;;;;16.93;9.10;;;;;;;8.78;100.00;100022.06;5006855;28;20336;-62
2023/01/02 03:23:03;;;;;;;14.13;8.80;;;;;;;8.74;100.00;100011.13;5028824;28;20178;-63
2023/01/02 03:25:32;;;;;;;16.37;8.77;;;;;;;8.63;100.00;100021.88;5035648;28;20220;-62
2023/01/02 03:28:00;;;;;;;20.40;8.80;;;;;;;8.69;100.00;100013.09;5035131;28;20252;-62
2023/01/02 03:30:29;;;;;;;15.83;9.37;;;;;;;8.59;100.00;100019.56;5010363;28;20680;-64
2023/01/02 03:33:07;;;;;;;11.37;9.00;;;;;;;8.39;100.00;100021.28;5030105;28;20181;-63
2023/01/02 03:36:02;;;;;;;17.27;8.80;;;;;;;8.32;100.00;100032.72;5017771;28;20267;-62
2023/01/02 03:38:35;;;;;;;12.43;9.00;;;;;;;8.36;100.00;100032.53;5034944;28;20213;-62
2023/01/02 03:41:21;;;;;;;16.20;8.93;;;;;;;8.31;100.00;100037.03;5030928;28;20606;-62
2023/01/02 03:43:50;;;;;;;12.43;8.23;;;;;;;8.46;100.00;100040.66;5023763;28;20185;-62
2023/01/02 03:46:29;;;;;;;14.70;8.53;;;;;;;8.42;100.00;100035.69;5016953;28;20618;-62
2023/01/02 03:49:06;;;;;;;13.57;8.13;;;;;;;8.06;100.00;100037.31;5036116;28;20186;-62
2023/01/02 03:51:32;;;;;;;12.30;8.67;;;;;;;8.08;100.00;100043.19;5019118;28;20244;-62
2023/01/02 03:53:59;;;;;;;13.23;7.73;;;;;;;8.03;100.00;100040.84;5044392;28;20192;-62
2023/01/02 03:56:48;;;;;;;15.70;8.63;;;;;;;7.83;100.00;100048.59;5048715;28;20177;-63
2023/01/02 03:59:34;;;;;;;11.47;8.17;;;;;;;7.99;100.00;100056.41;5017441;28;20568;-62
2023/01/02 04:02:24;;;;;;;12.73;8.60;;;;;;;8.04;100.00;100062.19;5031783;28;20735;-62
2023/01/02 04:04:55;;;;;;;13.10;8.70;;;;;;;8.02;100.00;100056.28;5039506;28;20483;-63
2023/01/02 04:07:45;;;;;;;12.47;8.63;;;;;;;8.19;100.00;100040.97;5051734;28;20186;-62
2023/01/02 04:10:14;;;;;;;12.87;8.63;;;;;;;8.26;100.00;100038.97;5027727;28;20182;-62
2023/01/02 04:12:44;;;;;;;13.57;7.80;;;;;;;8.37;100.00;100039.31;5052839;28;20268;-66
2023/01/02 04:15:12;;;;;;;13.63;7.73;;;;;;;8.38;100.00;100033.28;5026982;28;20183;-62
2023/01/02 04:17:49;;;;;;;13.53;8.00;;;;;;;8.31;100.00;100037.03;5034712;28;20204;-62
2023/01/02 04:20:39;;;;;;;14.87;8.07;;;;;;;8.26;100.00;100038.97;5009394;28;20243;-62
2023/01/02 04:23:12;;;;;;;11.53;7.77;;;;;;;8.30;100.00;100044.78;5043149;28;20218;-63
2023/01/02 04:26:03;;;;;;;14.33;8.87;;;;;;;8.21;100.00;100048.59;5019386;28;20213;-62
2023/01/02 04:28:31;;;;;;;14.57;9.13;;;;;;;8.11;100.00;100045.59;5017836;28;20178;-62
2023/01/02 04:31:07;;;;;;;13.50;8.00;;;;;;;8.12;100.00;100054.16;5041922;28;20301;-61
2023/01/02 04:33:38;;;;;;;17.37;9.13;;;;;;;8.22;100.00;100065.63;5018196;28;20178;-62
2023/01/02 04:36:11;;;;;;;14.40;8.27;;;;;;;8.19;100.00;100068.34;5006426;28;20174;-61
2023/01/02 04:38:37;;;;;;;14.73;8.70;;;;;;;8.15;100.00;100070.22;5017993;28;20277;-63
2023/01/02 04:41:05;;;;;;;13.17;8.00;;;;;;;8.23;100.00;100075.00;5033069;28;20236;-62
2023/01/02 04:43:30;;;;;;;15.63;8.23;;;;;;;8.29;100.00;100068.75;5026872;28;20220;-62
2023/01/02 04:45:55;;;;;;;11.17;8.10;;;;;;;8.30;100.00;100070.41;5034059;28;20241;-62
2023/01/02 04:48:20;;;;;;;15.17;8.30;;;;;;;8.23;100.00;100073.25;5035677;28;20186;-62
2023/01/02 04:50:47;;;;;;;10.03;8.03;;;;;;;8.30;100.00;100071.25;5030309;28;20225;-62
2023/01/02 04:53:13;;;;;;;12.67;7.37;;;;;;;8.36;100.00;100073.53;5055568;28;20174;-63
2023/01/02 04:55:38;;;;;;;14.23;8.97;;;;;;;8.42;100.00;100076.72;5052919;28;20795;-62
2023/01/02 04:58:04;;;;;;;11.87;7.43;;;;;;;8.42;100.00;100071.59;5051696;28;20188;-62
2023/01/02 05:00:30;;;;;;;11.60;6.80;;;;;;;8.49;100.00;100067.88;5025056;28;20267;-62
2023/01/02 05:02:56;;;;;;;10.03;7.30;;;;;;;8.53;100.00;100075.34;5057412;28;20238;-64
2023/01/02 05:05:21;;;;;;;14.47;7.80;;;;;;;8.47;100.00;100067.94;5039597;28;20202;-62
2023/01/02 05:07:46;;;;;;;9.83;7.40;;;;;;;8.51;100.00;100068.66;5033858;28;20178;-63
2023/01/02 05:10:12;;;;;;;13.07;7.93;;;;;;;8.52;100.00;100058.31;5043399;28;20624;-61
2023/01/02 05:12:38;;;;;;;12.33;8.27;;;;;;;8.40;100.00;100056.28;5049511;28;20181;-65
2023/01/02 05:15:05;;;;;;;12.53;7.53;;;;;;;8.37;100.00;100064.09;5032941;28;20609;-62
2023/01/02 05:17:38;;;;;;;15.47;7.57;;;;;;;8.30;100.00;100062.72;5027600;28;20198;-63
2023/01/02 05:20:06;;;;;;;11.80;8.23;;;;;;;8.27;100.00;100063.69;5022559;28;20186;-62
2023/01/02 05:25:16;;;;;;;11.67;7.20;;;;;;;8.39;100.00;100067.44;4993147;28;20630;-62
2023/01/02 05:27:41;;;;;;;16.10;7.77;;;;;;;8.43;100.00;100068.94;4992658;28;20187;-62
2023/01/02 05:30:07;;;;;;;13.13;7.90;;;;;;;8.43;100.00;100079.19;4982691;28;20179;-62
2023/01/02 05:32:32;;;;;;;10.97;7.33;;;;;;;8.40;100.00;100079.34;5007154;28;20187;-61
2023/01/02 05:34:58;;;;;;;12.93;7.20;;;;;;;8.41;100.00;100091.28;4992821;28;20184;-61
2023/01/02 05:37:23;;;;;;;14.50;8.00;;;;;;;8.40;100.00;100092.16;4988081;28;20647;-62
2023/01/02 05:39:48;;;;;;;10.73;7.50;;;;;;;8.43;100.00;100088.63;4983873;28;20244;-62
2023/01/02 05:42:14;;;;;;;11.07;7.10;;;;;;;8.32;100.00;100091.69;5013965;28;20313;-61
2023/01/02 05:44:39;;;;;;;14.70;7.73;;;;;;;8.37;100.00;100088.00;4992542;28;20207;-62
2023/01/02 05:47:04;;;;;;;13.50;7.60;;;;;;;8.39;100.00;100081.06;4991953;28;20199;-62
2023/01/02 05:49:29;;;;;;;14.37;8.03;;;;;;;8.39;100.00;100075.94;4992593;28;20187;-61
2023/01/02 05:51:55;;;;;;;11.40;9.03;;;;;;;8.39;100.00;100082.81;4983259;28;20564;-62
2023/01/02 05:54:20;;;;;;;14.10;9.30;;;;;;;8.39;100.00;100088.75;4995207;28;20642;-61
2023/01/02 05:56:45;;;;;;;14.70;8.93;;;;;;;8.49;100.00;100093.50;4992054;28;20183;-62
2023/01/02 05:59:13;;;;;;;15.90;9.40;;;;;;;8.47;100.00;100091.03;4993074;28;20182;-62
2023/01/02 06:01:38;;;;;;;10.63;8.03;;;;;;;8.55;100.00;100090.66;4997448;28;20229;-62
2023/01/02 06:04:04;;;;;;;11.63;8.77;;;;;;;8.52;100.00;100094.19;4993855;28;20202;-61
2023/01/02 06:06:38;;;;;;;12.43;7.43;;;;;;;8.48;100.00;100095.22;4990746;28;20730;-62
2023/01/02 06:09:05;;;;;;;16.17;8.27;;;;;;;8.46;100.00;100098.72;4994088;28;20181;-61
2023/01/02 06:11:31;;;;;;;14.73;8.27;;;;;;;8.52;100.00;100111.28;4993318;28;20230;-62
2023/01/02 06:13:56;;;;;;;12.90;8.43;;;;;;;8.53;100.00;100093.31;5002061;28;20209;-62
2023/01/02 06:16:23;;;;;;;12.37;8.13;;;;;;;8.62;100.00;100102.31;4992500;28;20187;-62
2023/01/02 06:18:49;;;;;;;12.23;8.57;;;;;;;8.60;100.00;100103.28;4991035;28;20600;-61
2023/01/02 06:21:16;;;;;;;13.33;8.73;;;;;;;8.70;100.00;100105.31;4984152;28;20269;-62
2023/01/02 06:23:42;;;;;;;15.87;8.87;;;;;;;8.59;100.00;100107.56;4990887;28;20230;-62
2023/01/02 06:26:14;;;;;;;16.83;8.30;;;;;;;8.66;100.00;100097.88;4994135;28;20206;-62
2023/01/02 06:28:40;;;;;;;14.87;8.50;;;;;;;8.52;100.00;100107.03;4991815;28;20277;-64
2023/01/02 06:31:08;;;;;;;14.53;8.77;;;;;;;8.54;100.00;100105.19;4985424;28;20555;-62
2023/01/02 06:33:34;;;;;;;12.10;8.17;;;;;;;8.61;100.00;100112.59;4991754;28;20203;-62
2023/01/02 06:36:02;;;;;;;10.93;7.40;;;;;;;8.52;100.00;100117.28;4991782;28;20269;-63
2023/01/02 06:38:27;;;;;;;13.80;8.17;;;;;;;8.68;100.00;100116.56;4991821;28;20202;-61
2023/01/02 06:40:58;;;;;;;11.83;8.13;;;;;;;8.62;100.00;100124.53;4989893;28;20309;-62
2023/01/02 06:43:24;;;;;;;11.13;7.40;;;;;;;8.74;100.00;100129.09;4991527;28;20238;-62
2023/01/02 06:45:50;;;;;;;11.47;7.03;;;;;;;8.68;100.00;100114.00;4991209;28;20230;-62
2023/01/02 06:48:16;;;;;;;11.63;6.60;;;;;;;8.72;100.00;100118.91;4991687;28;20210;-62
2023/01/02 06:50:42;;;;;;;10.77;6.93;;;;;;;8.72;100.00;100118.09;4987919;28;20253;-61
2023/01/02 06:53:07;;;;;;;10.63;6.63;;;;;;;8.70;100.00;100112.19;4987597;28;20188;-62
2023/01/02 06:55:33;;;;;;;11.03;6.63;;;;;;;8.76;100.00;100104.22;4991765;28;20194;-63
2023/01/02 06:57:58;;;;;;;15.80;7.00;;;;;;;8.69;100.00;100107.97;4995729;28;20258;-61
2023/01/02 07:00:23;;;;;;;13.83;7.07;;;;;;;8.65;100.00;100106.47;4984140;28;20239;-61
2023/01/02 07:02:48;;;;;;;11.97;6.67;;;;;;;8.67;100.00;100112.31;5001749;28;20215;-62
2023/01/02 07:05:14;;;;;;;10.87;6.73;;;;;;;8.74;100.00;100112.88;4995819;28;20234;-61
2023/01/02 07:07:39;;;;;;;10.43;6.23;;;;;;;8.67;100.00;100112.31;4994678;28;20215;-64
2023/01/02 07:10:05;;;;;;;13.27;6.63;;;;;;;8.74;100.00;100105.19;5001096;28;20184;-62
2023/01/02 07:12:33;;;;;;;16.77;6.93;;;;;;;8.47;100.00;100103.84;4994470;28;20684;-62
2023/01/02 07:14:58;;;;;;;13.07;7.13;;;;;;;8.67;100.00;100104.63;5002347;28;20518;-62
2023/01/02 07:17:24;;;;;;;11.03;6.20;;;;;;;8.74;100.00;100098.31;5014165;28;20249;-62
2023/01/02 07:19:49;;;;;;;14.30;6.70;;;;;;;8.72;100.00;100093.28;5013022;28;20277;-62
2023/01/02 07:22:14;;;;;;;16.03;7.90;;;;;;;8.56;100.00;100089.75;4992393;28;20233;-64
2023/01/02 07:24:39;;;;;;;11.67;6.83;;;;;;;8.42;100.00;100086.97;5022107;28;20740;-62
2023/01/02 07:27:04;;;;;;;8.73;6.00;;;;;;;8.42;100.00;100084.41;5030581;28;20178;-62
2023/01/02 07:29:30;;;;;;;14.47;6.87;;;;;;;8.60;100.00;100098.97;5030036;28;20186;-62
2023/01/02 07:31:55;;;;;;;11.67;6.20;;;;;;;8.68;100.00;100109.72;5037755;28;20214;-63
2023/01/02 07:34:20;;;;;;;14.07;6.70;;;;;;;8.71;100.00;100113.88;5032667;28;20217;-62
2023/01/02 07:36:46;;;;;;;13.77;6.70;;;;;;;8.85;100.00;100116.59;5029798;28;20174;-62
2023/01/02 07:39:11;;;;;;;10.57;6.70;;;;;;;8.92;100.00;100108.59;5029395;28;20193;-62
2023/01/02 07:41:36;;;;;;;11.30;6.37;;;;;;;8.88;100.00;100101.06;5035977;28;20348;-62
2023/01/02 07:44:01;;;;;;;10.63;5.87;;;;;;;8.96;100.00;100121.22;5030695;28;20182;-62
2023/01/02 07:46:27;;;;;;;15.37;7.57;;;;;;;8.97;100.00;100127.22;5030523;28;20193;-62
2023/01/02 07:48:52;;;;;;;11.93;6.50;;;;;;;8.82;100.00;100124.44;5020938;28;20186;-63
2023/01/02 07:51:17;;;;;;;13.87;6.73;;;;;;;8.96;100.00;100125.53;5013992;28;20411;-56
2023/01/02 07:53:43;;;;;;;11.83;7.83;;;;;;;9.06;100.00;100115.66;5020111;28;20183;-57
2023/01/02 07:56:09;;;;;;;16.40;6.27;;;;;;;9.10;100.00;100106.91;5013789;28;20182;-57
2023/01/02 07:58:34;;;;;;;9.73;6.40;;;;;;;9.28;100.00;100126.56;5030837;28;20636;-58
2023/01/02 08:01:07;;;;;;;12.13;6.50;;;;;;;9.25;100.00;100134.38;5011893;28;20278;-57
2023/01/02 08:03:33;;;;;;;12.40;6.67;;;;;;;9.30;100.00;100127.31;5014468;28;20198;-57
2023/01/02 08:06:09;;;;;;;17.13;7.20;;;;;;;9.28;100.00;100125.69;5022214;28;20221;-57
2023/01/02 08:08:35;;;;;;;10.47;6.57;;;;;;;9.06;100.00;100125.94;5016384;28;20186;-57
2023/01/02 08:11:11;;;;;;;12.07;7.77;;;;;;;9.17;100.00;100127.06;5006920;28;20225;-57
2023/01/02 08:13:37;;;;;;;20.83;7.23;;;;;;;9.30;100.00;100147.00;5026968;28;20253;-57
2023/01/02 08:16:05;;;;;;;16.20;6.60;;;;;;;9.39;100.00;100167.09;5011900;28;20626;-62
2023/01/02 08:18:31;;;;;;;11.53;6.70;;;;;;;9.50;100.00;100169.97;5012835;28;20194;-63
2023/01/02 08:20:56;;;;;;;10.37;6.67;;;;;;;9.46;100.00;100173.59;5010630;28;20622;-62
2023/01/02 08:23:22;;;;;;;19.57;6.97;;;;;;;9.54;100.00;100178.38;5043980;28;20229;-62
2023/01/02 08:25:47;;;;;;;12.97;6.20;;;;;;;9.59;100.00;100180.69;5051911;28;20193;-61
2023/01/02 08:28:12;;;;;;;10.50;6.10;;;;;;;9.60;100.00;100183.22;5051655;28;20256;-61
2023/01/02 08:30:40;;;;;;;12.17;6.20;;;;;;;9.60;100.00;100179.78;5040165;28;20224;-63
2023/01/02 08:33:06;;;;;;;11.10;6.87;;;;;;;9.59;100.00;100176.41;5051383;28;20184;-62
2023/01/02 08:35:31;;;;;;;11.17;6.57;;;;;;;9.63;100.00;100182.22;5045974;28;20182;-61
2023/01/02 08:37:56;;;;;;;12.07;6.27;;;;;;;9.64;100.00;100186.47;5038843;28;20691;-62
2023/01/02 08:40:22;;;;;;;13.53;6.23;;;;;;;9.65;100.00;100191.50;5039070;28;20252;-62
2023/01/02 08:42:47;;;;;;;13.67;6.83;;;;;;;9.67;100.00;100187.13;5032202;28;20488;-61
2023/01/02 08:45:12;;;;;;;10.80;6.93;;;;;;;9.76;100.00;100205.56;5033012;28;20694;-61
2023/01/02 08:47:37;;;;;;;13.23;6.23;;;;;;;9.83;100.00;100194.06;5040670;28;20196;-61
2023/01/02 08:50:03;;;;;;;13.40;6.40;;;;;;;9.87;100.00;100198.13;5041094;28;20231;-62
2023/01/02 08:52:28;;;;;;;8.33;5.63;;;;;;;10.04;100.00;100193.91;5031108;28;20637;-62
2023/01/02 08:54:54;;;;;;;11.93;6.17;;;;;;;10.52;100.00;100196.59;5032054;28;20892;-61
2023/01/02 08:57:19;;;;;;;11.13;4.63;;;;;;;10.44;100.00;100191.88;5032351;28;20177;-61
2023/01/02 08:59:44;;;;;;;11.03;4.00;;;;;;;10.28;100.00;100195.22;5042848;28;20240;-61
2023/01/02 09:02:13;;;;;;;13.93;4.57;;;;;;;10.49;100.00;100197.59;5022456;28;20559;-61
2023/01/02 09:04:39;;;;;;;15.17;4.37;;;;;;;10.60;100.00;100204.75;5021861;28;20263;-64
2023/01/02 09:07:05;;;;;;;14.83;3.67;;;;;;;10.68;100.00;100205.19;5022462;28;20182;-63
2023/01/02 09:09:30;;;;;;;13.27;4.00;;;;;;;10.95;100.00;100207.16;5032062;28;20247;-63
2023/01/02 09:11:56;;;;;;;13.53;3.77;;;;;;;11.10;100.00;100206.34;5021384;28;20307;-64
2023/01/02 09:14:21;;;;;;;11.30;3.70;;;;;;;11.21;100.00;100220.34;5039187;28;20181;-63
2023/01/02 09:16:47;;;;;;;9.43;3.57;;;;;;;11.29;100.00;100223.34;5047552;28;20520;-63
2023/01/02 09:19:13;;;;;;;10.13;3.07;;;;;;;11.48;100.00;100219.75;5025387;28;20173;-62
2023/01/02 09:21:38;;;;;;;8.37;2.80;;;;;;;11.54;100.00;100219.41;5029411;28;20596;-62
2023/01/02 09:24:04;;;;;;;8.57;3.27;;;;;;;11.72;100.00;100231.25;5000370;28;20304;-63
2023/01/02 09:26:30;;;;;;;12.37;3.00;;;;;;;11.86;100.00;100219.31;5024636;28;20189;-63
2023/01/02 09:28:55;;;;;;;7.77;2.60;;;;;;;11.98;100.00;100217.78;5032434;28;20186;-63
2023/01/02 09:31:20;;;;;;;14.17;3.87;;;;;;;12.11;100.00;100216.97;5021501;28;20233;-64
2023/01/02 09:33:47;;;;;;;14.00;3.90;;;;;;;12.24;100.00;100216.22;5027469;28;20264;-63
2023/01/02 09:36:18;;;;;;;11.30;3.53;;;;;;;12.32;100.00;100224.34;5002884;28;20181;-62
2023/01/02 09:38:49;;;;;;;11.37;2.77;;;;;;;12.37;100.00;100232.63;5019924;28;20180;-64
2023/01/02 09:41:26;;;;;;;11.80;3.17;;;;;;;12.41;100.00;100235.88;5009446;28;20767;-63
2023/01/02 09:43:56;;;;;;;14.53;3.87;;;;;;;12.37;100.00;100242.97;5014406;28;20190;-63
2023/01/02 09:46:41;;;;;;;10.33;3.43;;;;;;;12.37;100.00;100250.69;5021694;28;20206;-63
2023/01/02 09:49:13;;;;;;;12.67;3.03;;;;;;;12.42;100.00;100250.44;5029064;28;20181;-64
2023/01/02 09:51:38;;;;;;;17.30;3.50;;;;;;;12.52;100.00;100251.53;5020361;28;20296;-63
2023/01/02 09:54:11;;;;;;;14.73;3.97;;;;;;;12.41;100.00;100249.59;5031380;28;20178;-63
2023/01/02 09:56:39;;;;;;;10.77;3.87;;;;;;;12.41;100.00;100262.47;5026727;28;20182;-63
2023/01/02 09:59:17;;;;;;;13.77;3.60;;;;;;;12.38;100.00;100264.44;5024556;28;20265;-63
2023/01/02 10:02:08;;;;;;;9.03;3.07;;;;;;;12.34;100.00;100271.53;5009164;28;20225;-63
2023/01/02 10:04:36;;;;;;;9.97;4.40;;;;;;;12.37;100.00;100261.00;5016353;28;20258;-63
2023/01/02 10:07:25;;;;;;;13.23;3.70;;;;;;;12.31;100.00;100263.13;5033818;28;20220;-63
2023/01/02 10:10:04;;;;;;;11.93;3.47;;;;;;;12.37;100.00;100263.59;5013469;28;20185;-64
2023/01/02 10:12:54;;;;;;;15.80;3.75;;;;;;;12.58;100.00;100264.06;5001460;28;20450;-64
2023/01/02 10:15:25;;;;;;;10.80;2.60;;;;;;;12.77;100.00;100265.53;5032130;28;20550;-62
2023/01/02 10:17:57;;;;;;;6.67;2.47;;;;;;;12.83;100.00;100272.06;5042491;28;20185;-64
2023/01/02 10:20:31;;;;;;;13.23;3.27;;;;;;;12.73;100.00;100282.94;5036973;28;20245;-63
2023/01/02 10:23:02;;;;;;;13.77;3.50;;;;;;;12.78;100.00;100280.09;5005763;28;20180;-64
2023/01/02 10:25:33;;;;;;;11.80;3.20;;;;;;;12.73;100.00;100287.28;5048064;28;20197;-63
2023/01/02 10:28:10;;;;;;;10.07;3.60;;;;;;;12.82;100.00;100291.88;5017548;28;20225;-63
2023/01/02 10:30:42;;;;;;;9.70;2.90;;;;;;;12.71;100.00;100284.81;5035964;28;20567;-64
2023/01/02 10:33:19;;;;;;;7.83;3.40;;;;;;;12.59;100.00;100293.28;5048375;28;20227;-62
2023/01/02 10:35:56;;;;;;;14.57;3.87;;;;;;;12.50;100.00;100288.66;5044129;28;20177;-62
2023/01/02 10:38:22;;;;;;;12.47;2.80;;;;;;;12.47;100.00;100294.84;5049435;28;20647;-63
2023/01/02 10:40:49;;;;;;;11.03;3.70;;;;;;;12.45;100.00;100295.84;5036165;28;20523;-63
2023/01/02 10:43:16;;;;;;;6.07;2.90;;;;;;;12.27;100.00;100288.28;5017749;28;20217;-63
2023/01/02 10:45:42;;;;;;;12.20;3.63;;;;;;;12.25;100.00;100293.53;5015786;28;20207;-63
2023/01/02 10:48:10;;;;;;;7.20;3.30;;;;;;;12.14;100.00;100297.66;5040935;28;20264;-62
2023/01/02 10:50:43;;;;;;;10.70;3.60;;;;;;;12.10;100.00;100297.00;5037076;28;20221;-63
2023/01/02 10:53:19;;;;;;;9.47;3.30;;;;;;;12.19;100.00;100300.78;5032338;28;20173;-62
2023/01/02 10:55:45;;;;;;;10.03;3.47;;;;;;;12.10;100.00;100291.84;5020158;28;20264;-63
2023/01/02 10:58:25;;;;;;;11.50;2.97;;;;;;;12.13;100.00;100289.09;5028629;28;20264;-61
2023/01/02 11:01:03;;;;;;;9.23;3.13;;;;;;;12.15;100.00;100292.38;5033403;28;20303;-61
2023/01/02 11:03:29;;;;;;;10.63;2.60;;;;;;;12.23;100.00;100297.09;5028287;28;20262;-61
2023/01/02 11:05:56;;;;;;;7.40;3.23;;;;;;;12.04;100.00;100295.59;5036959;28;20665;-62
2023/01/02 11:08:33;;;;;;;11.07;3.40;;;;;;;12.06;100.00;100301.50;5031711;28;20242;-63
2023/01/02 11:11:00;;;;;;;14.63;3.63;;;;;;;12.22;100.00;100306.59;5022867;28;20284;-62
2023/01/02 11:13:42;;;;;;;8.23;3.33;;;;;;;12.24;100.00;100297.03;5040480;28;20244;-61
2023/01/02 11:16:07;;;;;;;9.03;3.03;;;;;;;12.11;100.00;100298.66;5031739;28;20181;-61
2023/01/02 11:18:34;;;;;;;11.47;3.63;;;;;;;11.92;100.00;100302.25;5032006;28;20186;-61
2023/01/02 11:21:03;;;;;;;11.73;3.43;;;;;;;11.99;100.00;100302.75;5030048;28;20226;-61
2023/01/02 11:23:34;;;;;;;10.37;3.27;;;;;;;11.95;100.00;100299.50;5046337;28;20229;-63
2023/01/02 11:26:00;;;;;;;7.83;2.90;;;;;;;11.93;100.00;100290.19;5036005;28;20221;-62
2023/01/02 11:28:28;;;;;;;9.17;3.30;;;;;;;12.04;100.00;100297.34;5048342;28;20194;-61